createdAt,value
2017-07-28T00:00:46.214Z,1021.4
2017-07-28T00:01:46.215Z,1021.4
2017-07-28T00:02:46.213Z,1021.42
2017-07-28T00:03:46.206Z,1021.44
2017-07-28T00:04:46.204Z,1021.42
2017-07-28T00:05:46.204Z,1021.42
2017-07-28T00:06:46.200Z,1021.39
2017-07-28T00:07:46.194Z,1021.41
2017-07-28T00:08:46.191Z,1021.39
2017-07-28T00:09:46.186Z,1021.42
2017-07-28T00:10:46.184Z,1021.42
2017-07-28T00:11:46.175Z,1021.42
2017-07-28T00:12:46.177Z,1021.41
2017-07-28T00:13:46.175Z,1021.41
2017-07-28T00:14:46.169Z,1021.44
2017-07-28T00:15:46.162Z,1021.44
2017-07-28T00:16:46.158Z,1021.4
2017-07-28T00:17:46.157Z,1021.45
2017-07-28T00:18:46.152Z,1021.45
2017-07-28T00:19:46.150Z,1021.43
2017-07-28T00:20:46.147Z,1021.45
2017-07-28T00:21:46.145Z,1021.48
2017-07-28T00:22:46.136Z,1021.45
2017-07-28T00:23:46.135Z,1021.51
2017-07-28T00:24:46.131Z,1021.5
2017-07-28T00:25:46.134Z,1021.54
2017-07-28T00:26:46.124Z,1021.55
2017-07-28T00:27:46.125Z,1021.59
2017-07-28T00:28:46.120Z,1021.6
2017-07-28T00:29:46.114Z,1021.6
2017-07-28T00:30:46.111Z,1021.66
2017-07-28T00:31:46.109Z,1021.62
2017-07-28T00:32:46.106Z,1021.64
2017-07-28T00:33:46.102Z,1021.63
2017-07-28T00:34:46.099Z,1021.62
2017-07-28T00:35:46.096Z,1021.6
2017-07-28T00:36:46.091Z,1021.62
2017-07-28T00:37:46.088Z,1021.54
2017-07-28T00:38:46.084Z,1021.54
2017-07-28T00:39:46.079Z,1021.51
2017-07-28T00:40:46.076Z,1021.52
2017-07-28T00:41:46.076Z,1021.51
2017-07-28T00:42:46.067Z,1021.5
2017-07-28T00:43:46.069Z,1021.47
2017-07-28T00:44:46.061Z,1021.45
2017-07-28T00:45:46.062Z,1021.5
2017-07-28T00:46:46.057Z,1021.5
2017-07-28T00:47:46.053Z,1021.48
2017-07-28T00:48:46.043Z,1021.47
2017-07-28T00:49:46.042Z,1021.5
2017-07-28T00:50:46.045Z,1021.5
2017-07-28T00:51:46.035Z,1021.5
2017-07-28T00:52:46.034Z,1021.51
2017-07-28T00:53:46.033Z,1021.52
2017-07-28T00:54:46.025Z,1021.48
2017-07-28T00:55:46.023Z,1021.44
2017-07-28T00:56:46.019Z,1021.43
2017-07-28T00:57:46.016Z,1021.44
2017-07-28T00:58:46.012Z,1021.46
2017-07-28T00:59:46.005Z,1021.43
2017-07-28T01:00:46.007Z,1021.44
2017-07-28T01:01:46.005Z,1021.45
2017-07-28T01:02:46.006Z,1021.45
2017-07-28T01:03:45.996Z,1021.47
2017-07-28T01:04:45.989Z,1021.48
2017-07-28T01:05:45.991Z,1021.47
2017-07-28T01:06:45.983Z,1021.5
2017-07-28T01:07:45.982Z,1021.5
2017-07-28T01:08:45.977Z,1021.5
2017-07-28T01:09:45.976Z,1021.46
2017-07-28T01:10:45.970Z,1021.52
2017-07-28T01:11:45.967Z,1021.48
2017-07-28T01:12:45.962Z,1021.52
2017-07-28T01:13:45.962Z,1021.54
2017-07-28T01:14:45.955Z,1021.57
2017-07-28T01:15:45.957Z,1021.52
2017-07-28T01:16:45.949Z,1021.47
2017-07-28T01:17:45.944Z,1021.45
2017-07-28T01:18:45.938Z,1021.45
2017-07-28T01:19:45.938Z,1021.46
2017-07-28T01:20:45.937Z,1021.46
2017-07-28T01:21:45.933Z,1021.43
2017-07-28T01:22:45.930Z,1021.44
2017-07-28T01:23:45.931Z,1021.4
2017-07-28T01:24:45.918Z,1021.42
2017-07-28T01:25:45.917Z,1021.43
2017-07-28T01:26:45.912Z,1021.43
2017-07-28T01:27:45.914Z,1021.39
2017-07-28T01:28:45.909Z,1021.36
2017-07-28T01:29:45.907Z,1021.38
2017-07-28T01:30:45.903Z,1021.37
2017-07-28T01:31:45.898Z,1021.35
2017-07-28T01:32:45.893Z,1021.33
2017-07-28T01:33:45.888Z,1021.26
2017-07-28T01:34:45.887Z,1021.27
2017-07-28T01:35:45.884Z,1021.29
2017-07-28T01:36:45.881Z,1021.31
2017-07-28T01:37:45.881Z,1021.36
2017-07-28T01:38:45.876Z,1021.41
2017-07-28T01:39:45.871Z,1021.4
2017-07-28T01:40:45.868Z,1021.42
2017-07-28T01:41:45.865Z,1021.45
2017-07-28T01:42:45.862Z,1021.43
2017-07-28T01:43:45.858Z,1021.41
2017-07-28T01:44:45.853Z,1021.41
2017-07-28T01:45:45.847Z,1021.39
2017-07-28T01:46:45.848Z,1021.38
2017-07-28T01:47:45.843Z,1021.37
2017-07-28T01:48:45.842Z,1021.4
2017-07-28T01:49:45.835Z,1021.38
2017-07-28T01:50:45.834Z,1021.47
2017-07-28T01:51:45.832Z,1021.55
2017-07-28T01:52:45.826Z,1021.58
2017-07-28T01:53:45.822Z,1021.59
2017-07-28T01:54:45.818Z,1021.56
2017-07-28T01:55:45.813Z,1021.57
2017-07-28T01:56:45.813Z,1021.56
2017-07-28T01:57:45.810Z,1021.55
2017-07-28T01:58:45.806Z,1021.56
2017-07-28T01:59:45.803Z,1021.53
2017-07-28T02:00:45.800Z,1021.55
2017-07-28T02:01:45.791Z,1021.52
2017-07-28T02:02:45.792Z,1021.5
2017-07-28T02:03:45.792Z,1021.55
2017-07-28T02:04:45.782Z,1021.63
2017-07-28T02:05:45.782Z,1021.63
2017-07-28T02:06:45.779Z,1021.63
2017-07-28T02:07:45.773Z,1021.63
2017-07-28T02:08:45.769Z,1021.66
2017-07-28T02:09:45.769Z,1021.64
2017-07-28T02:10:45.764Z,1021.65
2017-07-28T02:11:45.761Z,1021.62
2017-07-28T02:12:45.751Z,1021.69
2017-07-28T02:13:45.753Z,1021.71
2017-07-28T02:14:45.746Z,1021.75
2017-07-28T02:15:45.740Z,1021.76
2017-07-28T02:16:45.743Z,1021.77
2017-07-28T02:17:45.737Z,1021.75
2017-07-28T02:18:45.734Z,1021.7
2017-07-28T02:19:45.730Z,1021.7
2017-07-28T02:20:45.724Z,1021.68
2017-07-28T02:21:45.723Z,1021.7
2017-07-28T02:22:45.718Z,1021.7
2017-07-28T02:23:45.712Z,1021.65
2017-07-28T02:24:45.708Z,1021.64
2017-07-28T02:25:45.710Z,1021.64
2017-07-28T02:26:45.703Z,1021.65
2017-07-28T02:27:45.699Z,1021.7
2017-07-28T02:28:45.700Z,1021.64
2017-07-28T02:29:45.692Z,1021.6
2017-07-28T02:30:45.691Z,1021.67
2017-07-28T02:31:45.686Z,1021.68
2017-07-28T02:32:45.679Z,1021.7
2017-07-28T02:33:45.679Z,1021.73
2017-07-28T02:34:45.675Z,1021.74
2017-07-28T02:35:45.671Z,1021.75
2017-07-28T02:36:45.667Z,1021.81
2017-07-28T02:37:45.963Z,1021.85
2017-07-28T02:38:45.661Z,1021.86
2017-07-28T02:39:45.657Z,1021.88
2017-07-28T02:40:45.653Z,1021.84
2017-07-28T02:41:45.644Z,1021.86
2017-07-28T02:42:45.640Z,1021.9
2017-07-28T02:43:45.641Z,1021.9
2017-07-28T02:44:45.638Z,1021.94
2017-07-28T02:45:45.634Z,1021.92
2017-07-28T02:46:45.634Z,1021.92
2017-07-28T02:47:45.624Z,1021.92
2017-07-28T02:48:45.622Z,1021.89
2017-07-28T02:49:45.617Z,1021.9
2017-07-28T02:50:45.613Z,1021.88
2017-07-28T02:51:45.615Z,1021.92
2017-07-28T02:52:45.608Z,1022.03
2017-07-28T02:53:45.602Z,1022.13
2017-07-28T02:54:45.601Z,1022.17
2017-07-28T02:55:45.595Z,1022.14
2017-07-28T02:56:45.592Z,1022.12
2017-07-28T02:57:45.589Z,1022.12
2017-07-28T02:58:45.587Z,1022.08
2017-07-28T02:59:45.582Z,1022.08
2017-07-28T03:00:45.573Z,1022.07
2017-07-28T03:01:45.569Z,1022.08
2017-07-28T03:02:45.568Z,1022.08
2017-07-28T03:03:45.565Z,1022.05
2017-07-28T03:04:45.561Z,1022.06
2017-07-28T03:05:45.560Z,1022.09
2017-07-28T03:06:45.555Z,1022.06
2017-07-28T03:07:45.550Z,1022.08
2017-07-28T03:08:45.545Z,1022.01
2017-07-28T03:09:45.542Z,1022.05
2017-07-28T03:10:45.536Z,1022.02
2017-07-28T03:11:45.530Z,1022
2017-07-28T03:12:45.528Z,1021.98
2017-07-28T03:13:45.530Z,1021.97
2017-07-28T03:14:45.526Z,1021.99
2017-07-28T03:15:45.520Z,1022.08
2017-07-28T03:16:45.511Z,1022.14
2017-07-28T03:17:45.509Z,1022.08
2017-07-28T03:18:45.506Z,1022.08
2017-07-28T03:19:45.506Z,1022.11
2017-07-28T03:20:45.497Z,1022.1
2017-07-28T03:21:45.496Z,1022.11
2017-07-28T03:22:45.491Z,1022.1
2017-07-28T03:23:45.487Z,1022.14
2017-07-28T03:24:45.485Z,1022.2
2017-07-28T03:25:45.497Z,1022.22
2017-07-28T03:26:45.474Z,1022.2
2017-07-28T03:27:45.473Z,1022.28
2017-07-28T03:28:45.469Z,1022.26
2017-07-28T03:29:45.462Z,1022.31
2017-07-28T03:30:45.458Z,1022.34
2017-07-28T03:31:45.457Z,1022.35
2017-07-28T03:32:45.450Z,1022.35
2017-07-28T03:33:45.450Z,1022.41
2017-07-28T03:34:45.449Z,1022.4
2017-07-28T03:35:45.443Z,1022.4
2017-07-28T03:36:45.432Z,1022.45
2017-07-28T03:37:45.434Z,1022.45
2017-07-28T03:38:45.430Z,1022.43
2017-07-28T03:39:45.427Z,1022.42
2017-07-28T03:40:45.419Z,1022.42
2017-07-28T03:41:45.418Z,1022.45
2017-07-28T03:42:45.411Z,1022.38
2017-07-28T03:43:45.411Z,1022.39
2017-07-28T03:44:45.429Z,1022.35
2017-07-28T03:45:45.398Z,1022.33
2017-07-28T03:46:45.398Z,1022.3
2017-07-28T03:47:45.394Z,1022.25
2017-07-28T03:48:45.390Z,1022.22
2017-07-28T03:49:45.381Z,1022.25
2017-07-28T03:50:45.378Z,1022.21
2017-07-28T03:51:45.373Z,1022.16
2017-07-28T03:52:45.376Z,1022.12
2017-07-28T03:53:45.370Z,1022.11
2017-07-28T03:54:45.368Z,1022.13
2017-07-28T03:55:45.362Z,1022.1
2017-07-28T03:56:45.359Z,1022.11
2017-07-28T03:57:45.351Z,1022.12
2017-07-28T03:58:45.346Z,1022.11
2017-07-28T03:59:45.344Z,1022.11
2017-07-28T04:00:45.343Z,1022.08
2017-07-28T04:01:45.338Z,1022.07
2017-07-28T04:02:45.336Z,1021.99
2017-07-28T04:03:45.331Z,1021.9
2017-07-28T04:04:45.327Z,1021.77
2017-07-28T04:05:45.318Z,1021.71
2017-07-28T04:06:45.318Z,1021.63
2017-07-28T04:07:45.312Z,1021.55
2017-07-28T04:08:45.313Z,1021.44
2017-07-28T04:09:45.309Z,1021.33
2017-07-28T04:10:45.304Z,1021.29
2017-07-28T04:11:45.300Z,1021.19
2017-07-28T04:12:45.296Z,1021.13
2017-07-28T04:13:45.292Z,1021.07
2017-07-28T04:14:45.293Z,1021.1
2017-07-28T04:15:45.292Z,1021.21
2017-07-28T04:16:45.287Z,1021.3
2017-07-28T04:17:45.280Z,1021.37
2017-07-28T04:18:45.281Z,1021.34
2017-07-28T04:19:45.274Z,1021.36
2017-07-28T04:20:45.273Z,1021.36
2017-07-28T04:21:45.270Z,1021.2
2017-07-28T04:22:45.270Z,1021.08
2017-07-28T04:23:45.266Z,1021.01
2017-07-28T04:24:45.260Z,1020.84
2017-07-28T04:25:45.263Z,1020.68
2017-07-28T04:26:45.259Z,1020.46
2017-07-28T04:27:45.258Z,1020.33
2017-07-28T04:28:45.255Z,1020.26
2017-07-28T04:29:45.250Z,1020.1
2017-07-28T04:30:45.252Z,1020.03
2017-07-28T04:31:45.247Z,1019.88
2017-07-28T04:32:45.245Z,1019.79
2017-07-28T04:33:45.243Z,1019.71
2017-07-28T04:34:45.238Z,1019.51
2017-07-28T04:35:45.238Z,1019.4
2017-07-28T04:36:45.240Z,1019.32
2017-07-28T04:37:45.239Z,1019.2
2017-07-28T04:38:45.238Z,1019.12
2017-07-28T04:39:45.240Z,1019.04
2017-07-28T04:40:45.239Z,1018.92
2017-07-28T04:41:45.238Z,1018.79
2017-07-28T04:42:45.238Z,1018.75
2017-07-28T04:43:45.236Z,1018.67
2017-07-28T04:44:45.239Z,1018.66
2017-07-28T04:45:45.239Z,1018.55
2017-07-28T04:46:45.240Z,1018.43
2017-07-28T04:47:45.237Z,1018.42
2017-07-28T04:48:45.241Z,1018.4
2017-07-28T04:49:45.238Z,1018.31
2017-07-28T04:50:45.239Z,1018.23
2017-07-28T04:51:45.245Z,1018.13
2017-07-28T04:52:45.243Z,1017.92
2017-07-28T04:53:45.244Z,1017.99
2017-07-28T04:54:45.251Z,1017.91
2017-07-28T04:55:45.252Z,1017.79
2017-07-28T04:56:45.254Z,1017.79
2017-07-28T04:57:45.255Z,1017.73
2017-07-28T04:58:45.262Z,1017.72
2017-07-28T04:59:45.263Z,1017.66
2017-07-28T05:00:45.264Z,1017.56
2017-07-28T05:01:45.272Z,1017.52
2017-07-28T05:02:45.276Z,1017.41
2017-07-28T05:03:45.277Z,1017.3
2017-07-28T05:04:45.277Z,1017.29
2017-07-28T05:05:45.285Z,1017.29
2017-07-28T05:06:45.289Z,1017.22
2017-07-28T05:07:45.296Z,1017.44
2017-07-28T05:08:45.300Z,1017.66
2017-07-28T05:09:45.307Z,1017.85
2017-07-28T05:10:45.311Z,1017.98
2017-07-28T05:11:45.314Z,1017.73
2017-07-28T05:12:45.339Z,1017.73
2017-07-28T05:13:45.326Z,1017.8
2017-07-28T05:14:45.327Z,1017.67
2017-07-28T05:15:45.330Z,1017.52
2017-07-28T05:16:45.340Z,1017.4
2017-07-28T05:17:45.344Z,1017.3
2017-07-28T05:18:45.351Z,1017.13
2017-07-28T05:19:45.352Z,1017.06
2017-07-28T05:20:45.361Z,1016.97
2017-07-28T05:21:45.368Z,1016.9
2017-07-28T05:22:45.373Z,1016.81
2017-07-28T05:23:45.379Z,1016.79
2017-07-28T05:24:45.386Z,1016.87
2017-07-28T05:25:45.391Z,1016.84
2017-07-28T05:26:45.397Z,1016.77
2017-07-28T05:27:45.404Z,1016.66
2017-07-28T05:28:45.412Z,1016.58
2017-07-28T05:29:45.418Z,1016.5
2017-07-28T05:30:45.421Z,1016.57
2017-07-28T05:31:45.435Z,1016.56
2017-07-28T05:32:45.439Z,1016.56
2017-07-28T05:33:45.446Z,1016.95
2017-07-28T05:34:45.451Z,1017.13
2017-07-28T05:35:45.463Z,1017.03
2017-07-28T05:36:45.469Z,1016.97
2017-07-28T05:37:45.476Z,1016.95
2017-07-28T05:38:45.485Z,1016.86
2017-07-28T05:39:45.493Z,1016.71
2017-07-28T05:40:45.497Z,1016.63
2017-07-28T05:41:45.507Z,1016.52
2017-07-28T05:42:45.515Z,1016.52
2017-07-28T05:43:45.523Z,1016.49
2017-07-28T05:44:45.529Z,1016.47
2017-07-28T05:45:45.543Z,1016.4
2017-07-28T05:46:45.551Z,1016.36
2017-07-28T05:47:45.559Z,1016.27
2017-07-28T05:48:45.562Z,1016.15
2017-07-28T05:49:45.576Z,1016.01
2017-07-28T05:50:45.586Z,1015.99
2017-07-28T05:51:45.596Z,1015.91
2017-07-28T05:52:45.603Z,1015.82
2017-07-28T05:53:45.608Z,1015.8
2017-07-28T05:54:45.621Z,1015.81
2017-07-28T05:55:45.626Z,1015.81
2017-07-28T05:56:45.638Z,1015.79
2017-07-28T05:57:45.647Z,1015.74
2017-07-28T05:58:45.660Z,1015.69
2017-07-28T05:59:45.670Z,1015.6
2017-07-28T06:00:45.681Z,1015.57
2017-07-28T06:01:45.691Z,1015.56
2017-07-28T06:02:45.699Z,1015.6
2017-07-28T06:03:45.710Z,1015.63
2017-07-28T06:04:45.721Z,1015.67
2017-07-28T06:05:45.732Z,1015.74
2017-07-28T06:06:45.744Z,1015.69
2017-07-28T06:07:45.756Z,1015.6
2017-07-28T06:08:45.766Z,1015.54
2017-07-28T06:09:45.773Z,1015.5
2017-07-28T06:10:45.787Z,1015.43
2017-07-28T06:11:45.793Z,1015.42
2017-07-28T06:12:45.810Z,1015.3
2017-07-28T06:13:45.818Z,1015.31
2017-07-28T06:14:45.833Z,1015.25
2017-07-28T06:15:45.842Z,1015.24
2017-07-28T06:16:45.856Z,1015.17
2017-07-28T06:17:45.868Z,1015.12
2017-07-28T06:18:45.881Z,1015.14
2017-07-28T06:19:45.893Z,1015.21
2017-07-28T06:20:45.903Z,1015.29
2017-07-28T06:21:45.916Z,1015.17
2017-07-28T06:22:45.929Z,1015.06
2017-07-28T06:23:45.938Z,1015.03
2017-07-28T06:24:45.953Z,1014.93
2017-07-28T06:25:45.969Z,1014.94
2017-07-28T06:26:45.981Z,1014.92
2017-07-28T06:27:45.993Z,1014.88
2017-07-28T06:28:46.007Z,1014.86
2017-07-28T06:29:46.020Z,1014.89
2017-07-28T06:30:46.032Z,1014.95
2017-07-28T06:31:46.042Z,1015.06
2017-07-28T06:32:46.061Z,1015.04
2017-07-28T06:33:46.070Z,1014.95
2017-07-28T06:34:46.085Z,1014.81
2017-07-28T06:35:46.101Z,1014.7
2017-07-28T06:36:46.124Z,1014.7
2017-07-28T06:37:46.128Z,1014.63
2017-07-28T06:38:46.138Z,1014.56
2017-07-28T06:39:46.157Z,1014.48
2017-07-28T06:40:46.171Z,1014.47
2017-07-28T06:41:46.189Z,1014.45
2017-07-28T06:42:46.198Z,1014.46
2017-07-28T06:43:46.215Z,1014.46
2017-07-28T06:44:46.230Z,1014.41
2017-07-28T06:45:46.247Z,1014.37
2017-07-28T06:46:46.258Z,1014.32
2017-07-28T06:47:46.277Z,1014.23
2017-07-28T06:48:46.288Z,1014.12
2017-07-28T06:49:46.304Z,1014.04
2017-07-28T06:50:46.343Z,1014
2017-07-28T06:51:46.337Z,1013.92
2017-07-28T06:52:46.350Z,1013.92
2017-07-28T06:54:46.381Z,1013.91
2017-07-28T06:55:46.394Z,1013.83
2017-07-28T06:56:46.410Z,1013.7
2017-07-28T06:57:46.428Z,1013.73
2017-07-28T06:58:46.445Z,1013.65
2017-07-28T06:59:46.464Z,1013.68
2017-07-28T07:00:46.476Z,1013.62
2017-07-28T07:01:46.492Z,1013.63
2017-07-28T07:02:46.506Z,1013.53
2017-07-28T07:03:46.526Z,1013.52
2017-07-28T07:04:46.545Z,1013.5
2017-07-28T07:05:46.559Z,1013.53
2017-07-28T07:06:46.575Z,1013.57
2017-07-28T07:07:46.603Z,1013.57
2017-07-28T07:08:46.608Z,1013.55
2017-07-28T07:09:46.630Z,1013.61
2017-07-28T07:10:46.643Z,1013.6
2017-07-28T07:11:46.657Z,1013.61
2017-07-28T07:12:46.678Z,1013.67
2017-07-28T07:13:46.692Z,1013.65
2017-07-28T07:14:46.711Z,1013.74
2017-07-28T07:15:46.724Z,1013.71
2017-07-28T07:16:46.744Z,1013.82
2017-07-28T07:17:46.758Z,1013.8
2017-07-28T07:18:46.783Z,1013.75
2017-07-28T07:19:46.797Z,1013.86
2017-07-28T07:20:46.818Z,1013.87
2017-07-28T07:21:46.836Z,1013.79
2017-07-28T07:22:46.848Z,1013.72
2017-07-28T07:23:46.865Z,1013.72
2017-07-28T07:24:46.882Z,1013.72
2017-07-28T07:25:46.899Z,1013.79
2017-07-28T07:26:46.919Z,1013.85
2017-07-28T07:27:46.939Z,1013.87
2017-07-28T07:28:46.953Z,1013.84
2017-07-28T07:29:46.969Z,1013.86
2017-07-28T07:30:46.988Z,1013.87
2017-07-28T07:31:47.004Z,1013.93
2017-07-28T07:32:47.020Z,1013.92
2017-07-28T07:33:47.034Z,1013.86
2017-07-28T07:34:47.055Z,1013.9
2017-07-28T07:35:47.070Z,1013.93
2017-07-28T07:36:47.092Z,1013.9
2017-07-28T07:37:47.106Z,1013.95
2017-07-28T07:38:47.125Z,1014.01
2017-07-28T07:39:47.141Z,1014.03
2017-07-28T07:40:47.158Z,1014
2017-07-28T07:41:47.175Z,1014.01
2017-07-28T07:42:47.195Z,1013.97
2017-07-28T07:43:47.213Z,1013.96
2017-07-28T07:44:47.230Z,1014
2017-07-28T07:45:47.246Z,1014.02
2017-07-28T07:46:47.265Z,1014
2017-07-28T07:47:47.279Z,1013.94
2017-07-28T07:48:47.305Z,1014.03
2017-07-28T07:49:47.316Z,1014.07
2017-07-28T07:50:47.333Z,1014.14
2017-07-28T07:51:47.351Z,1014.16
2017-07-28T07:52:47.368Z,1014.09
2017-07-28T07:53:47.387Z,1014.04
2017-07-28T07:54:47.403Z,1014.08
2017-07-28T07:55:47.417Z,1014.11
2017-07-28T07:56:47.441Z,1014.06
2017-07-28T07:57:47.452Z,1014.13
2017-07-28T07:58:47.478Z,1014.11
2017-07-28T07:59:48.498Z,1014.15
2017-07-28T08:00:47.509Z,1014.28
2017-07-28T08:01:47.526Z,1014.33
2017-07-28T08:02:47.547Z,1014.29
2017-07-28T08:03:47.562Z,1014.3
2017-07-28T08:04:47.575Z,1014.25
2017-07-28T08:05:47.601Z,1014.22
2017-07-28T08:06:47.615Z,1014.08
2017-07-28T08:07:47.635Z,1013.97
2017-07-28T08:08:47.649Z,1013.95
2017-07-28T08:09:47.670Z,1013.81
2017-07-28T08:10:47.685Z,1013.73
2017-07-28T08:11:47.707Z,1013.54
2017-07-28T08:12:47.726Z,1013.4
2017-07-28T08:13:47.746Z,1013.23
2017-07-28T08:14:47.762Z,1013.03
2017-07-28T08:15:47.782Z,1012.95
2017-07-28T08:16:47.802Z,1012.86
2017-07-28T08:17:47.821Z,1012.71
2017-07-28T08:18:47.841Z,1012.62
2017-07-28T08:19:47.860Z,1012.49
2017-07-28T08:20:47.876Z,1012.53
2017-07-28T08:21:47.900Z,1012.47
2017-07-28T08:22:47.917Z,1012.55
2017-07-28T08:23:47.943Z,1012.75
2017-07-28T08:24:47.956Z,1013.11
2017-07-28T08:25:47.975Z,1013.54
2017-07-28T08:26:47.996Z,1013.9
2017-07-28T08:27:48.011Z,1014.01
2017-07-28T08:28:48.030Z,1014.17
2017-07-28T08:29:48.053Z,1014.33
2017-07-28T08:30:48.073Z,1014.47
2017-07-28T08:31:48.090Z,1014.47
2017-07-28T08:32:48.106Z,1014.66
2017-07-28T08:33:48.127Z,1014.71
2017-07-28T08:34:48.140Z,1014.76
2017-07-28T08:35:48.162Z,1014.9
2017-07-28T08:36:48.176Z,1014.98
2017-07-28T08:37:48.194Z,1015.03
2017-07-28T08:38:48.213Z,1015.06
2017-07-28T08:39:48.227Z,1015.06
2017-07-28T08:40:48.244Z,1015.14
2017-07-28T08:41:48.264Z,1015.18
2017-07-28T08:42:48.277Z,1015.16
2017-07-28T08:43:48.296Z,1015.07
2017-07-28T08:44:48.313Z,1015.11
2017-07-28T08:45:48.331Z,1015.13
2017-07-28T08:46:48.347Z,1015.26
2017-07-28T08:47:48.360Z,1015.3
2017-07-28T08:48:48.377Z,1015.36
2017-07-28T08:49:48.395Z,1015.42
2017-07-28T08:50:48.406Z,1015.87
2017-07-28T08:51:48.421Z,1016.26
2017-07-28T08:52:48.440Z,1017.04
2017-07-28T08:53:48.457Z,1017.76
2017-07-28T08:54:48.469Z,1018.4
2017-07-28T08:55:48.485Z,1018.89
2017-07-28T08:56:48.499Z,1019.31
2017-07-28T08:57:48.512Z,1019.65
2017-07-28T08:58:48.526Z,1019.94
2017-07-28T08:59:48.540Z,1020.27
2017-07-28T09:00:48.553Z,1020.48
2017-07-28T09:01:48.560Z,1020.72
2017-07-28T09:02:48.570Z,1020.99
2017-07-28T09:03:48.591Z,1021.28
2017-07-28T09:04:48.594Z,1021.5
2017-07-28T09:05:48.606Z,1021.69
2017-07-28T09:06:48.616Z,1021.88
2017-07-28T09:07:48.621Z,1022.07
2017-07-28T09:08:48.633Z,1022.2
2017-07-28T09:09:48.643Z,1022.26
2017-07-28T09:10:48.654Z,1022.43
2017-07-28T09:11:48.658Z,1022.47
2017-07-28T09:12:48.670Z,1022.56
2017-07-28T09:13:48.676Z,1022.62
2017-07-28T09:14:48.688Z,1022.76
2017-07-28T09:15:48.692Z,1022.7
2017-07-28T09:16:48.697Z,1022.9
2017-07-28T09:17:48.706Z,1022.89
2017-07-28T09:18:48.711Z,1022.93
2017-07-28T09:19:48.720Z,1023.07
2017-07-28T09:20:48.724Z,1022.98
2017-07-28T09:21:48.739Z,1023.18
2017-07-28T09:22:48.744Z,1023.16
2017-07-28T09:23:48.742Z,1023.04
2017-07-28T09:24:48.748Z,1023.06
2017-07-28T09:25:48.756Z,1022.97
2017-07-28T09:26:48.758Z,1022.86
2017-07-28T09:27:48.769Z,1022.9
2017-07-28T09:28:48.771Z,1022.75
2017-07-28T09:29:48.780Z,1022.64
2017-07-28T09:30:48.782Z,1022.66
2017-07-28T09:31:48.787Z,1022.81
2017-07-28T09:32:48.787Z,1022.79
2017-07-28T09:33:48.792Z,1022.86
2017-07-28T09:34:48.800Z,1022.88
2017-07-28T09:35:48.808Z,1022.93
2017-07-28T09:36:48.807Z,1023
2017-07-28T09:37:48.813Z,1023.06
2017-07-28T09:38:48.819Z,1023.11
2017-07-28T09:39:48.821Z,1023.1
2017-07-28T09:40:48.823Z,1023.1
2017-07-28T09:41:48.832Z,1023.13
2017-07-28T09:42:48.835Z,1023.13
2017-07-28T09:43:48.840Z,1023.08
2017-07-28T09:44:48.847Z,1023.13
2017-07-28T09:45:48.847Z,1023.08
2017-07-28T09:46:48.851Z,1023.14
2017-07-28T09:47:48.855Z,1023.2
2017-07-28T09:48:48.859Z,1023.18
2017-07-28T09:49:48.870Z,1023.29
2017-07-28T09:50:48.868Z,1023.32
2017-07-28T09:51:48.868Z,1023.35
2017-07-28T09:52:48.874Z,1023.36
2017-07-28T09:53:48.878Z,1023.25
2017-07-28T09:54:48.881Z,1023.26
2017-07-28T09:55:48.884Z,1023.18
2017-07-28T09:56:48.889Z,1023.18
2017-07-28T09:57:48.900Z,1023.12
2017-07-28T09:58:48.896Z,1023.13
2017-07-28T09:59:48.899Z,1023.03
2017-07-28T10:00:48.905Z,1022.99
2017-07-28T10:01:48.909Z,1022.97
2017-07-28T10:02:48.907Z,1022.9
2017-07-28T10:03:48.915Z,1022.87
2017-07-28T10:04:48.918Z,1022.83
2017-07-28T10:05:48.923Z,1022.72
2017-07-28T10:06:48.928Z,1022.55
2017-07-28T10:07:48.925Z,1022.43
2017-07-28T10:08:48.935Z,1022.28
2017-07-28T10:09:48.937Z,1022.14
2017-07-28T10:10:48.943Z,1022.1
2017-07-28T10:11:48.941Z,1022.04
2017-07-28T10:12:48.949Z,1022
2017-07-28T10:13:48.954Z,1022.05
2017-07-28T10:14:48.955Z,1022.08
2017-07-28T10:15:48.963Z,1022.1
2017-07-28T10:16:48.970Z,1022.26
2017-07-28T10:17:48.970Z,1022.34
2017-07-28T10:18:48.976Z,1022.38
2017-07-28T10:19:48.979Z,1022.51
2017-07-28T10:20:48.980Z,1022.58
2017-07-28T10:21:48.988Z,1022.57
2017-07-28T10:22:48.991Z,1022.5
2017-07-28T10:23:48.999Z,1022.5
2017-07-28T10:24:49.002Z,1022.52
2017-07-28T10:25:49.007Z,1022.48
2017-07-28T10:26:49.011Z,1022.55
2017-07-28T10:27:49.013Z,1022.46
2017-07-28T10:28:49.020Z,1022.52
2017-07-28T10:29:49.021Z,1022.52
2017-07-28T10:30:49.036Z,1022.61
2017-07-28T10:31:49.032Z,1022.6
2017-07-28T10:32:49.036Z,1022.66
2017-07-28T10:33:49.039Z,1022.67
2017-07-28T10:34:49.048Z,1022.68
2017-07-28T10:35:49.052Z,1022.75
2017-07-28T10:36:49.057Z,1022.71
2017-07-28T10:37:49.058Z,1022.64
2017-07-28T10:38:49.066Z,1022.62
2017-07-28T10:39:49.071Z,1022.57
2017-07-28T10:40:49.069Z,1022.54
2017-07-28T10:41:49.078Z,1022.55
2017-07-28T10:42:49.082Z,1022.62
2017-07-28T10:43:49.088Z,1022.56
2017-07-28T10:44:49.439Z,1022.62
2017-07-28T10:45:49.096Z,1022.6
2017-07-28T10:46:49.100Z,1022.59
2017-07-28T10:47:49.103Z,1022.58
2017-07-28T10:48:49.108Z,1022.58
2017-07-28T10:49:49.109Z,1022.51
2017-07-28T10:50:49.118Z,1022.39
2017-07-28T10:51:49.121Z,1022.19
2017-07-28T10:52:49.125Z,1022.02
2017-07-28T10:53:49.130Z,1021.93
2017-07-28T10:54:49.134Z,1021.9
2017-07-28T10:55:49.140Z,1021.84
2017-07-28T10:56:49.143Z,1021.74
2017-07-28T10:57:49.146Z,1021.71
2017-07-28T10:58:49.149Z,1021.73
2017-07-28T10:59:49.157Z,1021.67
2017-07-28T11:00:49.164Z,1021.74
2017-07-28T11:01:49.167Z,1021.77
2017-07-28T11:02:49.171Z,1021.88
2017-07-28T11:03:49.176Z,1021.9
2017-07-28T11:04:49.182Z,1021.83
2017-07-28T11:05:49.186Z,1021.81
2017-07-28T11:06:49.194Z,1021.76
2017-07-28T11:07:49.198Z,1021.77
2017-07-28T11:08:49.205Z,1021.73
2017-07-28T11:09:49.205Z,1021.72
2017-07-28T11:10:49.215Z,1021.68
2017-07-28T11:11:49.221Z,1021.69
2017-07-28T11:12:49.224Z,1021.7
2017-07-28T11:13:49.228Z,1021.67
2017-07-28T11:14:49.238Z,1021.56
2017-07-28T11:15:49.242Z,1021.57
2017-07-28T11:16:49.249Z,1021.52
2017-07-28T11:17:49.250Z,1021.49
2017-07-28T11:18:49.265Z,1021.46
2017-07-28T11:19:49.263Z,1021.47
2017-07-28T11:20:49.268Z,1021.41
2017-07-28T11:21:49.274Z,1021.41
2017-07-28T11:22:49.282Z,1021.36
2017-07-28T11:23:49.286Z,1021.38
2017-07-28T11:24:49.313Z,1021.41
2017-07-28T11:25:49.299Z,1021.46
2017-07-28T11:26:49.306Z,1021.43
2017-07-28T11:27:49.313Z,1021.54
2017-07-28T11:28:49.318Z,1021.61
2017-07-28T11:29:49.326Z,1021.7
2017-07-28T11:30:49.327Z,1021.69
2017-07-28T11:31:49.338Z,1021.73
2017-07-28T11:32:49.340Z,1021.73
2017-07-28T11:33:49.348Z,1021.74
2017-07-28T11:34:49.354Z,1021.73
2017-07-28T11:35:49.360Z,1021.71
2017-07-28T11:36:49.365Z,1021.71
2017-07-28T11:37:49.372Z,1021.61
2017-07-28T11:38:49.378Z,1021.59
2017-07-28T11:39:49.385Z,1021.63
2017-07-28T11:40:49.392Z,1021.59
2017-07-28T11:41:49.395Z,1021.54
2017-07-28T11:42:49.406Z,1021.54
2017-07-28T11:43:49.406Z,1021.54
2017-07-28T11:44:49.415Z,1021.57
2017-07-28T11:45:49.418Z,1021.52
2017-07-28T11:46:49.423Z,1021.46
2017-07-28T11:47:49.433Z,1021.45
2017-07-28T11:48:49.437Z,1021.45
2017-07-28T11:49:49.446Z,1021.41
2017-07-28T11:50:49.449Z,1021.37
2017-07-28T11:51:49.456Z,1021.38
2017-07-28T11:52:49.467Z,1021.35
2017-07-28T11:53:49.470Z,1021.39
2017-07-28T11:54:49.474Z,1021.34
2017-07-28T11:55:49.480Z,1021.33
2017-07-28T11:56:49.490Z,1021.32
2017-07-28T11:57:49.496Z,1021.37
2017-07-28T11:58:49.500Z,1021.32
2017-07-28T11:59:49.506Z,1021.31
2017-07-28T12:00:49.514Z,1021.33
2017-07-28T12:01:49.522Z,1021.3
2017-07-28T12:02:49.534Z,1021.26
2017-07-28T12:03:49.531Z,1021.21
2017-07-28T12:04:49.539Z,1021.21
2017-07-28T12:05:49.549Z,1021.14
2017-07-28T12:06:49.551Z,1021.09
2017-07-28T12:07:49.564Z,1021.13
2017-07-28T12:08:49.569Z,1021.1
2017-07-28T12:09:49.578Z,1021.07
2017-07-28T12:10:49.581Z,1021